Weather at Gualo Rai Heliport

Public forecast

Using degrees Celsius for public forecast. Weather courtesy of forecast.io.

Closest aviation weather report (METAR) to Gualo Rai Heliport

Closest report is Saipan International Airport, 4.2 nm (7.7 km) S.

2024/05/25 00:54 (retrieved 24 minutes ago)

PGSN 250054Z 08015KT 10SM CLR 32/23 A2991 RMK AO2 SLP149 T03220228

Closest aviation forecast (TAF) to Gualo Rai Heliport

Forecast is more than 6 hours old.

Closest forecast is Andersen Air Force Base, 106.8 nm (197.8 km) SSW.

2024/05/24 18:12 (retrieved 7 hours ago)

TAF PGUA 241800Z 2418/2524 09010G15KT 9999 SCT010 BKN020 QNH2989INS TEMPO 2418/2502 6000 SHRA BKN012 TX30/2502Z TN26/2419Z